sensor_id;sensor_type;location;lat;lon;timestamp;P1;durP1;ratioP1;P2;durP2;ratioP2
19687;SDS011;9993;52.008;4.732;2022-12-29T00:01:27;3.67;;;3.37;;
19687;SDS011;9993;52.008;4.732;2022-12-29T00:03:53;3.30;;;3.00;;
19687;SDS011;9993;52.008;4.732;2022-12-29T00:06:18;3.20;;;2.90;;
19687;SDS011;9993;52.008;4.732;2022-12-29T00:08:43;3.83;;;3.53;;
19687;SDS011;9993;52.008;4.732;2022-12-29T00:11:09;5.40;;;3.27;;
19687;SDS011;9993;52.008;4.732;2022-12-29T00:13:35;3.27;;;2.70;;
19687;SDS011;9993;52.008;4.732;2022-12-29T00:16:19;4.03;;;3.20;;
19687;SDS011;9993;52.008;4.732;2022-12-29T00:18:44;3.60;;;3.30;;
19687;SDS011;9993;52.008;4.732;2022-12-29T00:21:19;3.37;;;3.07;;
19687;SDS011;9993;52.008;4.732;2022-12-29T00:24:03;3.30;;;3.07;;
19687;SDS011;9993;52.008;4.732;2022-12-29T00:26:48;2.90;;;2.70;;
19687;SDS011;9993;52.008;4.732;2022-12-29T00:29:33;3.07;;;2.87;;
19687;SDS011;9993;52.008;4.732;2022-12-29T00:32:17;3.67;;;3.37;;
19687;SDS011;9993;52.008;4.732;2022-12-29T00:35:01;2.87;;;2.67;;
19687;SDS011;9993;52.008;4.732;2022-12-29T00:37:36;3.33;;;2.90;;
19687;SDS011;9993;52.008;4.732;2022-12-29T00:40:21;5.33;;;3.00;;
19687;SDS011;9993;52.008;4.732;2022-12-29T00:43:05;4.83;;;3.50;;
19687;SDS011;9993;52.008;4.732;2022-12-29T00:46:06;3.03;;;2.83;;
19687;SDS011;9993;52.008;4.732;2022-12-29T00:48:31;3.70;;;2.70;;
19687;SDS011;9993;52.008;4.732;2022-12-29T00:51:15;3.33;;;3.03;;
19687;SDS011;9993;52.008;4.732;2022-12-29T00:53:40;3.73;;;3.10;;
19687;SDS011;9993;52.008;4.732;2022-12-29T00:56:05;2.90;;;2.70;;
19687;SDS011;9993;52.008;4.732;2022-12-29T00:58:30;2.80;;;2.60;;
19687;SDS011;9993;52.008;4.732;2022-12-29T01:01:03;5.40;;;2.60;;
19687;SDS011;9993;52.008;4.732;2022-12-29T01:03:28;2.87;;;2.33;;
19687;SDS011;9993;52.008;4.732;2022-12-29T01:05:53;4.43;;;2.47;;
19687;SDS011;9993;52.008;4.732;2022-12-29T01:08:18;2.80;;;2.50;;
19687;SDS011;9993;52.008;4.732;2022-12-29T01:10:44;2.90;;;2.70;;
19687;SDS011;9993;52.008;4.732;2022-12-29T01:13:09;3.17;;;2.83;;
19687;SDS011;9993;52.008;4.732;2022-12-29T01:15:34;3.00;;;2.53;;
19687;SDS011;9993;52.008;4.732;2022-12-29T01:17:59;2.67;;;2.47;;
19687;SDS011;9993;52.008;4.732;2022-12-29T01:20:24;2.83;;;2.23;;
19687;SDS011;9993;52.008;4.732;2022-12-29T01:22:50;4.00;;;2.63;;
19687;SDS011;9993;52.008;4.732;2022-12-29T01:25:15;2.20;;;2.10;;
19687;SDS011;9993;52.008;4.732;2022-12-29T01:27:40;3.03;;;2.50;;
19687;SDS011;9993;52.008;4.732;2022-12-29T01:30:05;4.00;;;3.20;;
19687;SDS011;9993;52.008;4.732;2022-12-29T01:32:31;3.67;;;2.97;;
19687;SDS011;9993;52.008;4.732;2022-12-29T01:34:56;2.90;;;2.70;;
19687;SDS011;9993;52.008;4.732;2022-12-29T01:37:21;3.57;;;3.27;;
19687;SDS011;9993;52.008;4.732;2022-12-29T01:39:46;2.80;;;2.60;;
19687;SDS011;9993;52.008;4.732;2022-12-29T01:42:16;5.67;;;3.20;;
19687;SDS011;9993;52.008;4.732;2022-12-29T01:44:55;2.70;;;2.50;;
19687;SDS011;9993;52.008;4.732;2022-12-29T01:47:31;2.10;;;2.00;;
19687;SDS011;9993;52.008;4.732;2022-12-29T01:49:57;3.97;;;2.80;;
19687;SDS011;9993;52.008;4.732;2022-12-29T01:52:24;3.50;;;3.20;;
19687;SDS011;9993;52.008;4.732;2022-12-29T01:54:52;2.53;;;2.33;;
19687;SDS011;9993;52.008;4.732;2022-12-29T01:57:19;2.83;;;2.10;;
19687;SDS011;9993;52.008;4.732;2022-12-29T01:59:48;4.60;;;2.60;;
19687;SDS011;9993;52.008;4.732;2022-12-29T02:02:15;2.87;;;2.40;;
19687;SDS011;9993;52.008;4.732;2022-12-29T02:04:41;2.00;;;1.90;;
19687;SDS011;9993;52.008;4.732;2022-12-29T02:07:10;3.80;;;2.73;;
19687;SDS011;9993;52.008;4.732;2022-12-29T02:09:37;4.00;;;2.43;;
19687;SDS011;9993;52.008;4.732;2022-12-29T02:12:02;2.33;;;2.13;;
19687;SDS011;9993;52.008;4.732;2022-12-29T02:14:28;3.87;;;2.53;;
19687;SDS011;9993;52.008;4.732;2022-12-29T02:17:01;2.33;;;2.13;;
19687;SDS011;9993;52.008;4.732;2022-12-29T02:24:48;5.13;;;2.50;;
19687;SDS011;9993;52.008;4.732;2022-12-29T02:27:36;2.77;;;2.57;;
19687;SDS011;9993;52.008;4.732;2022-12-29T02:30:06;1.57;;;1.47;;
19687;SDS011;9993;52.008;4.732;2022-12-29T02:42:48;3.77;;;1.63;;
19687;SDS011;9993;52.008;4.732;2022-12-29T02:45:30;2.20;;;1.97;;
19687;SDS011;9993;52.008;4.732;2022-12-29T02:50:25;4.77;;;1.87;;
19687;SDS011;9993;52.008;4.732;2022-12-29T02:52:57;3.73;;;2.13;;
19687;SDS011;9993;52.008;4.732;2022-12-29T02:55:23;6.33;;;2.60;;
19687;SDS011;9993;52.008;4.732;2022-12-29T02:57:48;6.20;;;2.20;;
19687;SDS011;9993;52.008;4.732;2022-12-29T03:00:14;3.77;;;2.10;;
19687;SDS011;9993;52.008;4.732;2022-12-29T03:15:21;5.57;;;2.10;;
19687;SDS011;9993;52.008;4.732;2022-12-29T03:18:19;5.07;;;1.90;;
19687;SDS011;9993;52.008;4.732;2022-12-29T03:20:56;8.00;;;2.87;;
19687;SDS011;9993;52.008;4.732;2022-12-29T03:23:23;5.67;;;2.03;;
19687;SDS011;9993;52.008;4.732;2022-12-29T03:25:51;3.17;;;1.83;;
19687;SDS011;9993;52.008;4.732;2022-12-29T03:28:23;7.30;;;2.03;;
19687;SDS011;9993;52.008;4.732;2022-12-29T03:30:50;2.70;;;1.60;;
19687;SDS011;9993;52.008;4.732;2022-12-29T03:33:16;2.67;;;1.60;;
19687;SDS011;9993;52.008;4.732;2022-12-29T03:35:43;3.90;;;2.00;;
19687;SDS011;9993;52.008;4.732;2022-12-29T03:40:38;3.03;;;1.90;;
19687;SDS011;9993;52.008;4.732;2022-12-29T03:43:04;4.23;;;1.80;;
19687;SDS011;9993;52.008;4.732;2022-12-29T03:45:30;4.30;;;2.03;;
19687;SDS011;9993;52.008;4.732;2022-12-29T03:47:55;5.33;;;1.97;;
19687;SDS011;9993;52.008;4.732;2022-12-29T03:50:20;2.93;;;2.07;;
19687;SDS011;9993;52.008;4.732;2022-12-29T03:52:45;2.40;;;1.90;;
19687;SDS011;9993;52.008;4.732;2022-12-29T03:55:11;6.47;;;2.03;;
19687;SDS011;9993;52.008;4.732;2022-12-29T03:57:36;3.63;;;2.00;;
19687;SDS011;9993;52.008;4.732;2022-12-29T04:00:02;4.13;;;2.03;;
19687;SDS011;9993;52.008;4.732;2022-12-29T04:02:28;4.43;;;2.23;;
19687;SDS011;9993;52.008;4.732;2022-12-29T04:04:53;4.23;;;2.10;;
19687;SDS011;9993;52.008;4.732;2022-12-29T04:07:19;6.73;;;2.70;;
19687;SDS011;9993;52.008;4.732;2022-12-29T04:09:44;3.30;;;2.03;;
19687;SDS011;9993;52.008;4.732;2022-12-29T04:12:09;7.40;;;2.37;;
19687;SDS011;9993;52.008;4.732;2022-12-29T04:14:35;6.80;;;2.20;;
19687;SDS011;9993;52.008;4.732;2022-12-29T04:17:00;10.10;;;2.37;;
19687;SDS011;9993;52.008;4.732;2022-12-29T04:19:25;9.60;;;2.30;;
19687;SDS011;9993;52.008;4.732;2022-12-29T04:21:50;4.27;;;1.90;;
19687;SDS011;9993;52.008;4.732;2022-12-29T04:24:15;7.37;;;2.40;;
19687;SDS011;9993;52.008;4.732;2022-12-29T04:26:41;4.63;;;2.33;;
19687;SDS011;9993;52.008;4.732;2022-12-29T04:29:06;4.73;;;2.07;;
19687;SDS011;9993;52.008;4.732;2022-12-29T04:31:31;4.53;;;1.80;;
19687;SDS011;9993;52.008;4.732;2022-12-29T04:33:57;8.43;;;2.57;;
19687;SDS011;9993;52.008;4.732;2022-12-29T04:36:22;5.33;;;2.10;;
19687;SDS011;9993;52.008;4.732;2022-12-29T04:38:47;4.07;;;1.97;;
19687;SDS011;9993;52.008;4.732;2022-12-29T04:41:12;4.90;;;2.33;;
19687;SDS011;9993;52.008;4.732;2022-12-29T04:43:38;10.73;;;2.77;;
19687;SDS011;9993;52.008;4.732;2022-12-29T04:46:03;3.97;;;2.63;;
19687;SDS011;9993;52.008;4.732;2022-12-29T04:48:28;9.50;;;2.70;;
19687;SDS011;9993;52.008;4.732;2022-12-29T04:50:53;5.77;;;2.63;;
19687;SDS011;9993;52.008;4.732;2022-12-29T04:53:18;5.67;;;2.50;;
19687;SDS011;9993;52.008;4.732;2022-12-29T04:55:44;8.20;;;2.73;;
19687;SDS011;9993;52.008;4.732;2022-12-29T04:58:10;7.17;;;3.20;;
19687;SDS011;9993;52.008;4.732;2022-12-29T05:00:36;8.03;;;2.43;;
19687;SDS011;9993;52.008;4.732;2022-12-29T05:03:01;8.70;;;2.67;;
19687;SDS011;9993;52.008;4.732;2022-12-29T05:05:26;8.77;;;2.63;;
19687;SDS011;9993;52.008;4.732;2022-12-29T05:07:51;4.87;;;2.27;;
19687;SDS011;9993;52.008;4.732;2022-12-29T05:10:16;7.93;;;2.40;;
19687;SDS011;9993;52.008;4.732;2022-12-29T05:12:42;3.00;;;1.93;;
19687;SDS011;9993;52.008;4.732;2022-12-29T05:15:07;6.20;;;2.03;;
19687;SDS011;9993;52.008;4.732;2022-12-29T05:17:33;6.60;;;2.50;;
19687;SDS011;9993;52.008;4.732;2022-12-29T05:19:58;8.87;;;2.20;;
19687;SDS011;9993;52.008;4.732;2022-12-29T05:22:23;7.03;;;2.40;;
19687;SDS011;9993;52.008;4.732;2022-12-29T05:24:49;7.13;;;2.33;;
19687;SDS011;9993;52.008;4.732;2022-12-29T05:27:14;12.00;;;2.50;;
19687;SDS011;9993;52.008;4.732;2022-12-29T05:29:39;7.77;;;2.87;;
19687;SDS011;9993;52.008;4.732;2022-12-29T05:32:05;12.60;;;3.23;;
19687;SDS011;9993;52.008;4.732;2022-12-29T05:34:30;12.17;;;2.60;;
19687;SDS011;9993;52.008;4.732;2022-12-29T05:36:55;6.80;;;2.70;;
19687;SDS011;9993;52.008;4.732;2022-12-29T05:39:20;8.87;;;2.50;;
19687;SDS011;9993;52.008;4.732;2022-12-29T05:41:45;14.70;;;3.43;;
19687;SDS011;9993;52.008;4.732;2022-12-29T05:44:11;9.80;;;3.00;;
19687;SDS011;9993;52.008;4.732;2022-12-29T05:46:36;5.90;;;2.43;;
19687;SDS011;9993;52.008;4.732;2022-12-29T05:49:01;10.50;;;3.03;;
19687;SDS011;9993;52.008;4.732;2022-12-29T05:51:27;13.60;;;3.57;;
19687;SDS011;9993;52.008;4.732;2022-12-29T05:53:52;11.53;;;2.07;;
19687;SDS011;9993;52.008;4.732;2022-12-29T05:56:17;10.37;;;2.83;;
19687;SDS011;9993;52.008;4.732;2022-12-29T05:58:42;10.30;;;3.27;;
19687;SDS011;9993;52.008;4.732;2022-12-29T06:01:07;12.10;;;3.33;;
19687;SDS011;9993;52.008;4.732;2022-12-29T06:03:33;12.50;;;3.30;;
19687;SDS011;9993;52.008;4.732;2022-12-29T06:05:58;11.47;;;2.83;;
19687;SDS011;9993;52.008;4.732;2022-12-29T06:08:23;11.40;;;3.37;;
19687;SDS011;9993;52.008;4.732;2022-12-29T06:10:49;8.77;;;2.63;;
19687;SDS011;9993;52.008;4.732;2022-12-29T06:13:14;14.00;;;3.20;;
19687;SDS011;9993;52.008;4.732;2022-12-29T06:15:39;7.90;;;2.77;;
19687;SDS011;9993;52.008;4.732;2022-12-29T06:18:05;12.20;;;3.07;;
19687;SDS011;9993;52.008;4.732;2022-12-29T06:20:31;7.10;;;2.80;;
19687;SDS011;9993;52.008;4.732;2022-12-29T06:22:56;10.17;;;3.30;;
19687;SDS011;9993;52.008;4.732;2022-12-29T06:25:21;11.30;;;3.70;;
19687;SDS011;9993;52.008;4.732;2022-12-29T06:27:46;17.20;;;4.17;;
19687;SDS011;9993;52.008;4.732;2022-12-29T06:30:12;9.30;;;2.60;;
19687;SDS011;9993;52.008;4.732;2022-12-29T06:32:37;14.23;;;3.83;;
19687;SDS011;9993;52.008;4.732;2022-12-29T06:35:03;18.17;;;3.07;;
19687;SDS011;9993;52.008;4.732;2022-12-29T06:37:28;8.37;;;2.70;;
19687;SDS011;9993;52.008;4.732;2022-12-29T06:39:54;14.97;;;2.70;;
19687;SDS011;9993;52.008;4.732;2022-12-29T06:42:19;13.97;;;3.33;;
19687;SDS011;9993;52.008;4.732;2022-12-29T06:44:44;10.87;;;2.70;;
19687;SDS011;9993;52.008;4.732;2022-12-29T06:47:10;6.80;;;2.30;;
19687;SDS011;9993;52.008;4.732;2022-12-29T06:49:35;5.60;;;2.07;;
19687;SDS011;9993;52.008;4.732;2022-12-29T06:52:00;13.30;;;2.83;;
19687;SDS011;9993;52.008;4.732;2022-12-29T06:54:29;9.70;;;2.80;;
19687;SDS011;9993;52.008;4.732;2022-12-29T06:56:55;5.60;;;3.00;;
19687;SDS011;9993;52.008;4.732;2022-12-29T06:59:20;9.27;;;2.50;;
19687;SDS011;9993;52.008;4.732;2022-12-29T07:01:47;5.63;;;3.17;;
19687;SDS011;9993;52.008;4.732;2022-12-29T07:04:12;5.83;;;2.43;;
19687;SDS011;9993;52.008;4.732;2022-12-29T07:06:37;8.20;;;2.10;;
19687;SDS011;9993;52.008;4.732;2022-12-29T07:09:02;7.30;;;2.70;;
19687;SDS011;9993;52.008;4.732;2022-12-29T07:11:28;11.40;;;2.57;;
19687;SDS011;9993;52.008;4.732;2022-12-29T07:13:53;7.77;;;3.20;;
19687;SDS011;9993;52.008;4.732;2022-12-29T07:16:18;8.30;;;2.47;;
19687;SDS011;9993;52.008;4.732;2022-12-29T07:18:43;6.83;;;2.33;;
19687;SDS011;9993;52.008;4.732;2022-12-29T07:21:09;2.60;;;2.00;;
19687;SDS011;9993;52.008;4.732;2022-12-29T07:23:34;12.10;;;3.87;;
19687;SDS011;9993;52.008;4.732;2022-12-29T07:26:03;8.10;;;3.07;;
19687;SDS011;9993;52.008;4.732;2022-12-29T07:28:29;4.47;;;2.37;;
19687;SDS011;9993;52.008;4.732;2022-12-29T07:30:55;6.90;;;2.63;;
19687;SDS011;9993;52.008;4.732;2022-12-29T07:33:21;4.53;;;2.50;;
19687;SDS011;9993;52.008;4.732;2022-12-29T07:35:46;5.97;;;2.80;;
19687;SDS011;9993;52.008;4.732;2022-12-29T07:38:11;7.20;;;2.40;;
19687;SDS011;9993;52.008;4.732;2022-12-29T07:40:49;10.73;;;2.47;;
19687;SDS011;9993;52.008;4.732;2022-12-29T07:46:46;9.57;;;3.10;;
19687;SDS011;9993;52.008;4.732;2022-12-29T07:49:23;11.70;;;3.33;;
19687;SDS011;9993;52.008;4.732;2022-12-29T07:55:14;5.07;;;2.27;;
19687;SDS011;9993;52.008;4.732;2022-12-29T08:01:05;5.53;;;2.43;;
19687;SDS011;9993;52.008;4.732;2022-12-29T08:03:30;10.90;;;2.50;;
19687;SDS011;9993;52.008;4.732;2022-12-29T08:06:08;6.90;;;2.60;;
19687;SDS011;9993;52.008;4.732;2022-12-29T08:08:49;12.83;;;2.43;;
19687;SDS011;9993;52.008;4.732;2022-12-29T08:11:23;7.30;;;2.70;;
19687;SDS011;9993;52.008;4.732;2022-12-29T08:16:32;7.73;;;2.80;;
19687;SDS011;9993;52.008;4.732;2022-12-29T08:19:09;10.03;;;3.00;;
19687;SDS011;9993;52.008;4.732;2022-12-29T08:21:50;7.27;;;2.97;;
19687;SDS011;9993;52.008;4.732;2022-12-29T08:24:25;4.17;;;2.10;;
19687;SDS011;9993;52.008;4.732;2022-12-29T08:26:50;13.67;;;3.27;;
19687;SDS011;9993;52.008;4.732;2022-12-29T08:34:51;9.83;;;2.63;;
19687;SDS011;9993;52.008;4.732;2022-12-29T08:37:25;9.23;;;2.47;;
19687;SDS011;9993;52.008;4.732;2022-12-29T08:45:48;15.57;;;2.67;;
19687;SDS011;9993;52.008;4.732;2022-12-29T08:48:16;8.73;;;1.93;;
19687;SDS011;9993;52.008;4.732;2022-12-29T08:50:46;5.27;;;2.60;;
19687;SDS011;9993;52.008;4.732;2022-12-29T08:56:33;7.30;;;2.67;;
19687;SDS011;9993;52.008;4.732;2022-12-29T08:59:11;13.90;;;3.30;;
19687;SDS011;9993;52.008;4.732;2022-12-29T09:01:36;13.00;;;3.40;;
19687;SDS011;9993;52.008;4.732;2022-12-29T09:07:10;13.07;;;2.83;;
19687;SDS011;9993;52.008;4.732;2022-12-29T09:15:31;10.20;;;3.57;;
19687;SDS011;9993;52.008;4.732;2022-12-29T09:18:19;14.47;;;3.80;;
19687;SDS011;9993;52.008;4.732;2022-12-29T09:20:47;9.00;;;3.07;;
19687;SDS011;9993;52.008;4.732;2022-12-29T09:23:13;7.30;;;3.40;;
19687;SDS011;9993;52.008;4.732;2022-12-29T09:25:38;5.83;;;2.77;;
19687;SDS011;9993;52.008;4.732;2022-12-29T09:28:04;12.40;;;4.03;;
19687;SDS011;9993;52.008;4.732;2022-12-29T09:30:32;11.27;;;3.50;;
19687;SDS011;9993;52.008;4.732;2022-12-29T09:32:57;13.63;;;3.13;;
19687;SDS011;9993;52.008;4.732;2022-12-29T09:35:22;9.70;;;2.97;;
19687;SDS011;9993;52.008;4.732;2022-12-29T09:37:48;9.10;;;3.17;;
19687;SDS011;9993;52.008;4.732;2022-12-29T09:40:19;11.17;;;2.57;;
19687;SDS011;9993;52.008;4.732;2022-12-29T09:45:42;13.37;;;3.10;;
19687;SDS011;9993;52.008;4.732;2022-12-29T09:48:18;5.77;;;2.23;;
19687;SDS011;9993;52.008;4.732;2022-12-29T09:50:47;6.70;;;2.93;;
19687;SDS011;9993;52.008;4.732;2022-12-29T09:53:26;5.80;;;2.90;;
19687;SDS011;9993;52.008;4.732;2022-12-29T09:55:53;6.73;;;2.70;;
19687;SDS011;9993;52.008;4.732;2022-12-29T10:01:18;8.40;;;2.93;;
19687;SDS011;9993;52.008;4.732;2022-12-29T10:03:50;7.10;;;3.17;;
19687;SDS011;9993;52.008;4.732;2022-12-29T10:06:21;9.13;;;3.53;;
19687;SDS011;9993;52.008;4.732;2022-12-29T10:09:09;10.60;;;3.57;;
19687;SDS011;9993;52.008;4.732;2022-12-29T10:24:29;20.93;;;6.63;;
19687;SDS011;9993;52.008;4.732;2022-12-29T10:26:55;19.47;;;5.37;;
19687;SDS011;9993;52.008;4.732;2022-12-29T10:29:23;11.07;;;4.67;;
19687;SDS011;9993;52.008;4.732;2022-12-29T10:31:50;12.80;;;5.10;;
19687;SDS011;9993;52.008;4.732;2022-12-29T10:34:24;13.60;;;5.40;;
19687;SDS011;9993;52.008;4.732;2022-12-29T10:36:51;18.33;;;5.43;;
19687;SDS011;9993;52.008;4.732;2022-12-29T10:39:31;6.37;;;3.23;;
19687;SDS011;9993;52.008;4.732;2022-12-29T10:44:27;17.03;;;5.23;;
19687;SDS011;9993;52.008;4.732;2022-12-29T10:46:58;22.87;;;5.60;;
19687;SDS011;9993;52.008;4.732;2022-12-29T10:49:26;14.57;;;3.80;;
19687;SDS011;9993;52.008;4.732;2022-12-29T10:51:51;11.03;;;3.93;;
19687;SDS011;9993;52.008;4.732;2022-12-29T10:57:04;18.50;;;5.53;;
19687;SDS011;9993;52.008;4.732;2022-12-29T10:59:31;30.17;;;5.13;;
19687;SDS011;9993;52.008;4.732;2022-12-29T11:05:21;20.07;;;4.83;;
19687;SDS011;9993;52.008;4.732;2022-12-29T11:07:21;13.70;;;3.73;;
19687;SDS011;9993;52.008;4.732;2022-12-29T11:09:46;20.87;;;4.23;;
19687;SDS011;9993;52.008;4.732;2022-12-29T11:14:46;17.33;;;4.17;;
19687;SDS011;9993;52.008;4.732;2022-12-29T11:17:14;17.70;;;4.07;;
19687;SDS011;9993;52.008;4.732;2022-12-29T11:19:39;12.00;;;4.77;;
19687;SDS011;9993;52.008;4.732;2022-12-29T11:22:12;19.40;;;4.30;;
19687;SDS011;9993;52.008;4.732;2022-12-29T11:24:43;14.23;;;4.37;;
19687;SDS011;9993;52.008;4.732;2022-12-29T11:27:16;27.07;;;5.47;;
19687;SDS011;9993;52.008;4.732;2022-12-29T11:29:42;28.20;;;5.03;;
19687;SDS011;9993;52.008;4.732;2022-12-29T11:32:12;17.10;;;4.50;;
19687;SDS011;9993;52.008;4.732;2022-12-29T11:34:38;19.43;;;4.50;;
19687;SDS011;9993;52.008;4.732;2022-12-29T11:37:09;17.90;;;5.43;;
19687;SDS011;9993;52.008;4.732;2022-12-29T11:42:00;18.83;;;4.50;;
19687;SDS011;9993;52.008;4.732;2022-12-29T11:44:27;22.03;;;5.23;;
19687;SDS011;9993;52.008;4.732;2022-12-29T11:46:54;20.23;;;4.77;;
19687;SDS011;9993;52.008;4.732;2022-12-29T11:49:21;12.47;;;3.60;;
19687;SDS011;9993;52.008;4.732;2022-12-29T11:51:47;13.20;;;4.17;;
19687;SDS011;9993;52.008;4.732;2022-12-29T11:54:30;16.03;;;3.80;;
19687;SDS011;9993;52.008;4.732;2022-12-29T11:56:55;15.10;;;5.03;;
19687;SDS011;9993;52.008;4.732;2022-12-29T12:01:56;14.13;;;4.57;;
19687;SDS011;9993;52.008;4.732;2022-12-29T12:04:23;14.63;;;4.20;;
19687;SDS011;9993;52.008;4.732;2022-12-29T12:06:56;7.80;;;3.50;;
19687;SDS011;9993;52.008;4.732;2022-12-29T12:09:31;23.37;;;4.90;;
19687;SDS011;9993;52.008;4.732;2022-12-29T12:11:57;19.50;;;4.00;;
19687;SDS011;9993;52.008;4.732;2022-12-29T12:14:29;9.33;;;3.00;;
19687;SDS011;9993;52.008;4.732;2022-12-29T12:16:59;17.10;;;4.10;;
19687;SDS011;9993;52.008;4.732;2022-12-29T12:21:56;18.37;;;4.10;;
19687;SDS011;9993;52.008;4.732;2022-12-29T12:32:20;11.10;;;3.90;;
19687;SDS011;9993;52.008;4.732;2022-12-29T12:34:48;9.33;;;3.77;;
19687;SDS011;9993;52.008;4.732;2022-12-29T13:00:18;9.60;;;3.40;;
19687;SDS011;9993;52.008;4.732;2022-12-29T13:03:18;11.10;;;3.67;;
19687;SDS011;9993;52.008;4.732;2022-12-29T13:05:38;12.47;;;3.73;;
19687;SDS011;9993;52.008;4.732;2022-12-29T13:10:44;10.70;;;3.53;;
19687;SDS011;9993;52.008;4.732;2022-12-29T13:13:28;12.33;;;3.97;;
19687;SDS011;9993;52.008;4.732;2022-12-29T13:16:06;10.73;;;3.93;;
19687;SDS011;9993;52.008;4.732;2022-12-29T13:26:24;13.33;;;3.13;;
19687;SDS011;9993;52.008;4.732;2022-12-29T13:28:53;10.03;;;2.73;;
19687;SDS011;9993;52.008;4.732;2022-12-29T13:31:33;9.70;;;2.90;;
19687;SDS011;9993;52.008;4.732;2022-12-29T13:36:39;12.52;;;4.55;;
19687;SDS011;9993;52.008;4.732;2022-12-29T13:39:13;6.80;;;3.57;;
19687;SDS011;9993;52.008;4.732;2022-12-29T13:41:42;8.40;;;2.50;;
19687;SDS011;9993;52.008;4.732;2022-12-29T13:44:09;6.90;;;2.97;;
19687;SDS011;9993;52.008;4.732;2022-12-29T13:46:41;3.17;;;2.23;;
19687;SDS011;9993;52.008;4.732;2022-12-29T13:49:15;9.93;;;2.67;;
19687;SDS011;9993;52.008;4.732;2022-12-29T13:51:48;5.50;;;2.30;;
19687;SDS011;9993;52.008;4.732;2022-12-29T13:59:23;3.93;;;2.43;;
19687;SDS011;9993;52.008;4.732;2022-12-29T14:01:56;4.47;;;2.17;;
19687;SDS011;9993;52.008;4.732;2022-12-29T14:04:24;5.27;;;2.07;;
19687;SDS011;9993;52.008;4.732;2022-12-29T14:07:11;4.03;;;2.10;;
19687;SDS011;9993;52.008;4.732;2022-12-29T14:09:47;7.90;;;2.43;;
19687;SDS011;9993;52.008;4.732;2022-12-29T14:14:51;6.37;;;2.20;;
19687;SDS011;9993;52.008;4.732;2022-12-29T14:17:18;8.97;;;3.40;;
19687;SDS011;9993;52.008;4.732;2022-12-29T14:19:44;6.40;;;3.10;;
19687;SDS011;9993;52.008;4.732;2022-12-29T14:22:10;10.13;;;2.93;;
19687;SDS011;9993;52.008;4.732;2022-12-29T14:27:42;5.77;;;3.10;;
19687;SDS011;9993;52.008;4.732;2022-12-29T14:29:53;6.87;;;2.90;;
19687;SDS011;9993;52.008;4.732;2022-12-29T14:34:46;10.13;;;3.43;;
19687;SDS011;9993;52.008;4.732;2022-12-29T14:37:25;11.33;;;3.33;;
19687;SDS011;9993;52.008;4.732;2022-12-29T14:40:36;7.63;;;2.50;;
19687;SDS011;9993;52.008;4.732;2022-12-29T14:42:37;8.57;;;2.93;;
19687;SDS011;9993;52.008;4.732;2022-12-29T14:45:05;11.63;;;2.87;;
19687;SDS011;9993;52.008;4.732;2022-12-29T14:47:33;9.13;;;2.77;;
19687;SDS011;9993;52.008;4.732;2022-12-29T14:50:04;9.97;;;2.57;;
19687;SDS011;9993;52.008;4.732;2022-12-29T14:52:29;6.23;;;2.20;;
19687;SDS011;9993;52.008;4.732;2022-12-29T14:54:59;5.07;;;2.67;;
19687;SDS011;9993;52.008;4.732;2022-12-29T14:57:44;4.23;;;2.10;;
19687;SDS011;9993;52.008;4.732;2022-12-29T15:02:39;11.97;;;3.13;;
19687;SDS011;9993;52.008;4.732;2022-12-29T15:05:10;10.33;;;3.20;;
19687;SDS011;9993;52.008;4.732;2022-12-29T15:07:40;2.93;;;2.10;;
19687;SDS011;9993;52.008;4.732;2022-12-29T15:10:07;9.87;;;3.00;;
19687;SDS011;9993;52.008;4.732;2022-12-29T15:12:37;10.83;;;2.40;;
19687;SDS011;9993;52.008;4.732;2022-12-29T15:15:18;6.33;;;2.90;;
19687;SDS011;9993;52.008;4.732;2022-12-29T15:17:44;10.10;;;3.10;;
19687;SDS011;9993;52.008;4.732;2022-12-29T15:20:28;8.70;;;2.47;;
19687;SDS011;9993;52.008;4.732;2022-12-29T15:22:55;9.47;;;3.77;;
19687;SDS011;9993;52.008;4.732;2022-12-29T15:25:20;7.77;;;2.70;;
19687;SDS011;9993;52.008;4.732;2022-12-29T15:27:50;8.80;;;2.83;;
19687;SDS011;9993;52.008;4.732;2022-12-29T15:30:16;9.03;;;3.00;;
19687;SDS011;9993;52.008;4.732;2022-12-29T15:32:45;9.77;;;2.93;;
19687;SDS011;9993;52.008;4.732;2022-12-29T15:37:54;7.20;;;2.50;;
19687;SDS011;9993;52.008;4.732;2022-12-29T15:40:26;11.40;;;3.07;;
19687;SDS011;9993;52.008;4.732;2022-12-29T15:42:54;8.37;;;2.70;;
19687;SDS011;9993;52.008;4.732;2022-12-29T15:45:26;7.77;;;2.83;;
19687;SDS011;9993;52.008;4.732;2022-12-29T15:47:55;5.20;;;2.77;;
19687;SDS011;9993;52.008;4.732;2022-12-29T15:50:26;14.47;;;3.00;;
19687;SDS011;9993;52.008;4.732;2022-12-29T15:52:52;6.67;;;2.87;;
19687;SDS011;9993;52.008;4.732;2022-12-29T15:58:22;10.20;;;2.97;;
19687;SDS011;9993;52.008;4.732;2022-12-29T16:00:52;4.13;;;2.57;;
19687;SDS011;9993;52.008;4.732;2022-12-29T16:03:18;9.83;;;3.33;;
19687;SDS011;9993;52.008;4.732;2022-12-29T16:05:49;7.60;;;2.77;;
19687;SDS011;9993;52.008;4.732;2022-12-29T16:08:31;10.23;;;2.53;;
19687;SDS011;9993;52.008;4.732;2022-12-29T16:10:58;8.67;;;2.63;;
19687;SDS011;9993;52.008;4.732;2022-12-29T16:13:34;3.43;;;2.00;;
19687;SDS011;9993;52.008;4.732;2022-12-29T16:18:52;5.37;;;2.30;;
19687;SDS011;9993;52.008;4.732;2022-12-29T16:21:22;10.03;;;2.70;;
19687;SDS011;9993;52.008;4.732;2022-12-29T16:23:49;6.53;;;2.40;;
19687;SDS011;9993;52.008;4.732;2022-12-29T16:26:18;4.33;;;2.37;;
19687;SDS011;9993;52.008;4.732;2022-12-29T16:28:44;7.83;;;2.17;;
19687;SDS011;9993;52.008;4.732;2022-12-29T16:31:24;5.87;;;2.30;;
19687;SDS011;9993;52.008;4.732;2022-12-29T16:33:51;6.37;;;3.30;;
19687;SDS011;9993;52.008;4.732;2022-12-29T16:38:47;10.00;;;3.10;;
19687;SDS011;9993;52.008;4.732;2022-12-29T16:41:25;7.33;;;2.83;;
19687;SDS011;9993;52.008;4.732;2022-12-29T16:44:10;5.77;;;2.43;;
19687;SDS011;9993;52.008;4.732;2022-12-29T16:46:36;5.80;;;2.43;;
19687;SDS011;9993;52.008;4.732;2022-12-29T16:49:02;6.80;;;2.57;;
19687;SDS011;9993;52.008;4.732;2022-12-29T16:51:32;7.77;;;3.00;;
19687;SDS011;9993;52.008;4.732;2022-12-29T16:53:57;7.03;;;2.53;;
19687;SDS011;9993;52.008;4.732;2022-12-29T16:56:24;5.57;;;2.60;;
19687;SDS011;9993;52.008;4.732;2022-12-29T16:58:52;6.37;;;2.40;;
19687;SDS011;9993;52.008;4.732;2022-12-29T17:01:20;9.33;;;2.90;;
19687;SDS011;9993;52.008;4.732;2022-12-29T17:03:47;9.93;;;3.20;;
19687;SDS011;9993;52.008;4.732;2022-12-29T17:06:15;5.80;;;2.40;;
19687;SDS011;9993;52.008;4.732;2022-12-29T17:08:41;5.30;;;2.43;;
19687;SDS011;9993;52.008;4.732;2022-12-29T17:11:08;4.77;;;2.83;;
19687;SDS011;9993;52.008;4.732;2022-12-29T17:13:57;4.60;;;2.37;;
19687;SDS011;9993;52.008;4.732;2022-12-29T17:16:22;11.10;;;2.77;;
19687;SDS011;9993;52.008;4.732;2022-12-29T17:18:48;3.57;;;3.23;;
19687;SDS011;9993;52.008;4.732;2022-12-29T17:21:13;6.63;;;2.50;;
19687;SDS011;9993;52.008;4.732;2022-12-29T17:23:38;5.17;;;2.63;;
19687;SDS011;9993;52.008;4.732;2022-12-29T17:26:03;6.77;;;2.33;;
19687;SDS011;9993;52.008;4.732;2022-12-29T17:28:29;10.20;;;2.93;;
19687;SDS011;9993;52.008;4.732;2022-12-29T17:31:02;7.87;;;2.37;;
19687;SDS011;9993;52.008;4.732;2022-12-29T17:33:29;11.53;;;2.70;;
19687;SDS011;9993;52.008;4.732;2022-12-29T17:35:56;7.33;;;2.80;;
19687;SDS011;9993;52.008;4.732;2022-12-29T17:38:28;8.07;;;2.70;;
19687;SDS011;9993;52.008;4.732;2022-12-29T17:40:54;7.20;;;4.10;;
19687;SDS011;9993;52.008;4.732;2022-12-29T17:43:19;10.27;;;2.73;;
19687;SDS011;9993;52.008;4.732;2022-12-29T17:45:46;6.23;;;2.87;;
19687;SDS011;9993;52.008;4.732;2022-12-29T17:48:14;7.33;;;2.00;;
19687;SDS011;9993;52.008;4.732;2022-12-29T17:50:39;11.10;;;3.00;;
19687;SDS011;9993;52.008;4.732;2022-12-29T17:53:05;6.10;;;2.20;;
19687;SDS011;9993;52.008;4.732;2022-12-29T17:55:31;8.13;;;2.53;;
19687;SDS011;9993;52.008;4.732;2022-12-29T17:57:57;8.20;;;2.30;;
19687;SDS011;9993;52.008;4.732;2022-12-29T18:00:23;8.30;;;2.53;;
19687;SDS011;9993;52.008;4.732;2022-12-29T18:02:51;8.47;;;2.77;;
19687;SDS011;9993;52.008;4.732;2022-12-29T18:05:21;8.33;;;2.70;;